createdAt,value
2023-08-11T00:00:12.311Z,21.91
2023-08-11T00:01:11.780Z,21.92
2023-08-11T00:02:11.874Z,21.96
2023-08-11T00:03:11.441Z,22.00
2023-08-11T00:04:11.380Z,22.04
2023-08-11T00:05:11.621Z,22.03
2023-08-11T00:06:11.420Z,22.06
2023-08-11T00:07:11.517Z,22.08
2023-08-11T00:08:10.944Z,22.10
2023-08-11T00:09:10.901Z,22.08
2023-08-11T00:10:11.515Z,22.03
2023-08-11T00:11:11.360Z,21.94
2023-08-11T00:12:12.148Z,21.88
2023-08-11T00:13:11.061Z,21.83
2023-08-11T00:14:11.447Z,21.84
2023-08-11T00:15:11.454Z,21.89
2023-08-11T00:16:11.546Z,21.94
2023-08-11T00:17:11.303Z,21.97
2023-08-11T00:18:12.251Z,21.99
2023-08-11T00:19:11.314Z,21.99
2023-08-11T00:20:11.438Z,22.03
2023-08-11T00:21:11.321Z,22.01
2023-08-11T00:22:11.350Z,22.04
2023-08-11T00:23:11.366Z,22.04
2023-08-11T00:24:11.128Z,22.03
2023-08-11T00:25:11.161Z,21.96
2023-08-11T00:26:11.177Z,21.91
2023-08-11T00:27:12.278Z,21.84
2023-08-11T00:28:11.388Z,21.80
2023-08-11T00:29:11.233Z,21.74
2023-08-11T00:30:10.697Z,21.70
2023-08-11T00:31:11.497Z,21.63
2023-08-11T00:32:10.671Z,21.59
2023-08-11T00:33:11.717Z,21.51
2023-08-11T00:34:12.334Z,21.47
2023-08-11T00:35:11.204Z,21.44
2023-08-11T00:36:10.907Z,21.45
2023-08-11T00:37:11.013Z,21.48
2023-08-11T00:38:11.229Z,21.45
2023-08-11T00:39:11.332Z,21.50
2023-08-11T00:40:11.006Z,21.53
2023-08-11T00:41:11.826Z,21.53
2023-08-11T00:42:10.634Z,21.56
2023-08-11T00:43:11.135Z,21.53
2023-08-11T00:44:11.336Z,21.48
2023-08-11T00:45:11.785Z,21.47
2023-08-11T00:46:12.035Z,21.45
2023-08-11T00:47:11.498Z,21.48
2023-08-11T00:48:11.301Z,21.53
2023-08-11T00:49:10.509Z,21.54
2023-08-11T00:50:13.767Z,21.58
2023-08-11T00:51:10.501Z,21.58
2023-08-11T00:52:10.465Z,21.54
2023-08-11T00:53:10.913Z,21.56
2023-08-11T00:54:10.405Z,21.56
2023-08-11T00:55:10.929Z,21.59
2023-08-11T00:56:10.937Z,21.60
2023-08-11T00:57:12.073Z,21.63
2023-08-11T00:58:10.860Z,21.66
2023-08-11T00:59:10.855Z,21.65
2023-08-11T01:00:11.100Z,21.65
2023-08-11T01:01:11.092Z,21.65
2023-08-11T01:02:11.007Z,21.66
2023-08-11T01:03:14.834Z,21.69
2023-08-11T01:04:11.200Z,21.70
2023-08-11T01:05:11.003Z,21.69
2023-08-11T01:06:10.997Z,21.70
2023-08-11T01:07:11.536Z,21.70
2023-08-11T01:08:12.339Z,21.72
2023-08-11T01:09:11.231Z,21.72
2023-08-11T01:10:10.991Z,21.75
2023-08-11T01:11:11.798Z,21.77
2023-08-11T01:12:12.314Z,21.78
2023-08-11T01:13:10.261Z,21.78
2023-08-11T01:14:11.667Z,21.81
2023-08-11T01:15:11.085Z,21.81
2023-08-11T01:16:10.738Z,21.81
2023-08-11T01:17:11.198Z,21.81
2023-08-11T01:18:10.928Z,21.77
2023-08-11T01:19:10.479Z,21.72
2023-08-11T01:20:10.919Z,21.68
2023-08-11T01:21:10.323Z,21.63
2023-08-11T01:22:10.523Z,21.60
2023-08-11T01:23:10.343Z,21.58
2023-08-11T01:24:10.627Z,21.54
2023-08-11T01:25:10.825Z,21.50
2023-08-11T01:26:11.167Z,21.45
2023-08-11T01:27:10.736Z,21.43
2023-08-11T01:28:12.918Z,21.38
2023-08-11T01:29:10.765Z,21.30
2023-08-11T01:30:10.864Z,21.30
2023-08-11T01:31:10.292Z,21.28
2023-08-11T01:32:10.587Z,21.28
2023-08-11T01:33:11.589Z,21.28
2023-08-11T01:34:10.827Z,21.26
2023-08-11T01:35:10.089Z,21.23
2023-08-11T01:36:10.431Z,21.22
2023-08-11T01:37:10.796Z,21.22
2023-08-11T01:38:11.328Z,21.19
2023-08-11T01:39:10.446Z,21.22
2023-08-11T01:40:10.539Z,21.23
2023-08-11T01:41:09.939Z,21.25
2023-08-11T01:42:10.658Z,21.23
2023-08-11T01:43:10.033Z,21.23
2023-08-11T01:44:14.039Z,21.23
2023-08-11T01:45:10.466Z,21.20
2023-08-11T01:46:11.228Z,21.19
2023-08-11T01:47:11.303Z,21.14
2023-08-11T01:48:11.013Z,21.14
2023-08-11T01:49:10.443Z,21.13
2023-08-11T01:50:10.289Z,21.13
2023-08-11T01:51:10.523Z,21.13
2023-08-11T01:52:10.494Z,21.13
2023-08-11T01:53:12.364Z,21.11
2023-08-11T01:54:10.419Z,21.11
2023-08-11T01:55:10.437Z,21.08
2023-08-11T01:56:10.681Z,21.08
2023-08-11T01:57:10.345Z,21.07
2023-08-11T01:58:10.545Z,21.07
2023-08-11T01:59:10.053Z,21.05
2023-08-11T02:00:10.256Z,21.04
2023-08-11T02:01:12.312Z,21.03
2023-08-11T02:02:10.094Z,21.01
2023-08-11T02:03:09.902Z,20.98
2023-08-11T02:04:09.969Z,20.96
2023-08-11T02:05:09.980Z,20.95
2023-08-11T02:06:09.707Z,20.95
2023-08-11T02:07:09.993Z,20.95
2023-08-11T02:08:09.628Z,20.96
2023-08-11T02:09:09.701Z,20.96
2023-08-11T02:10:09.622Z,20.96
2023-08-11T02:11:09.608Z,21.00
2023-08-11T02:12:09.651Z,21.01
2023-08-11T02:13:09.859Z,21.01
2023-08-11T02:14:09.520Z,21.01
2023-08-11T02:15:09.733Z,21.03
2023-08-11T02:16:09.477Z,21.03
2023-08-11T02:17:09.783Z,21.03
2023-08-11T02:18:09.561Z,21.04
2023-08-11T02:19:10.276Z,21.05
2023-08-11T02:20:09.464Z,21.05
2023-08-11T02:21:09.525Z,21.04
2023-08-11T02:22:09.474Z,21.01
2023-08-11T02:23:09.481Z,21.00
2023-08-11T02:24:09.416Z,21.00
2023-08-11T02:25:09.596Z,21.00
2023-08-11T02:26:09.416Z,21.00
2023-08-11T02:27:09.672Z,21.00
2023-08-11T02:28:09.374Z,20.98
2023-08-11T02:29:09.347Z,20.96
2023-08-11T02:30:09.355Z,20.98
2023-08-11T02:31:09.373Z,21.00
2023-08-11T02:32:09.294Z,21.00
2023-08-11T02:33:09.377Z,21.03
2023-08-11T02:34:09.382Z,21.01
2023-08-11T02:35:09.481Z,21.03
2023-08-11T02:36:09.250Z,21.01
2023-08-11T02:37:09.566Z,21.01
2023-08-11T02:38:09.305Z,21.00
2023-08-11T02:39:09.504Z,21.00
2023-08-11T02:40:09.212Z,20.98
2023-08-11T02:41:09.313Z,20.96
2023-08-11T02:42:09.477Z,20.96
2023-08-11T02:43:09.373Z,20.95
2023-08-11T02:44:09.234Z,20.92
2023-08-11T02:45:09.246Z,20.90
2023-08-11T02:46:09.277Z,20.90
2023-08-11T02:47:09.254Z,20.90
2023-08-11T02:48:09.164Z,20.89
2023-08-11T02:49:09.300Z,20.88
2023-08-11T02:50:09.156Z,20.86
2023-08-11T02:51:09.081Z,20.86
2023-08-11T02:52:09.372Z,20.85
2023-08-11T02:53:09.197Z,20.86
2023-08-11T02:54:08.991Z,20.86
2023-08-11T02:55:10.047Z,20.83
2023-08-11T02:56:09.004Z,20.83
2023-08-11T02:57:09.862Z,20.83
2023-08-11T02:58:08.991Z,20.82
2023-08-11T02:59:08.927Z,20.80
2023-08-11T03:00:08.969Z,20.77
2023-08-11T03:01:09.069Z,20.77
2023-08-11T03:02:09.610Z,20.74
2023-08-11T03:03:09.999Z,20.73
2023-08-11T03:04:08.883Z,20.73
2023-08-11T03:05:09.069Z,20.71
2023-08-11T03:06:08.926Z,20.73
2023-08-11T03:07:08.975Z,20.73
2023-08-11T03:08:08.989Z,20.70
2023-08-11T03:09:08.966Z,20.71
2023-08-11T03:10:08.962Z,20.68
2023-08-11T03:11:08.898Z,20.67
2023-08-11T03:12:09.379Z,20.67
2023-08-11T03:13:08.884Z,20.67
2023-08-11T03:14:08.894Z,20.68
2023-08-11T03:15:09.017Z,20.68
2023-08-11T03:16:08.849Z,20.68
2023-08-11T03:17:08.838Z,20.66
2023-08-11T03:18:09.780Z,20.63
2023-08-11T03:19:08.848Z,20.64
2023-08-11T03:20:08.854Z,20.59
2023-08-11T03:21:19.228Z,20.58
2023-08-11T03:22:09.008Z,20.59
2023-08-11T03:23:08.976Z,20.59
2023-08-11T03:24:08.788Z,20.59
2023-08-11T03:25:08.760Z,20.58
2023-08-11T03:26:08.857Z,20.58
2023-08-11T03:27:08.962Z,20.55
2023-08-11T03:28:08.671Z,20.55
2023-08-11T03:29:09.130Z,20.55
2023-08-11T03:30:08.624Z,20.55
2023-08-11T03:31:08.685Z,20.53
2023-08-11T03:32:08.986Z,20.55
2023-08-11T03:33:08.981Z,20.55
2023-08-11T03:34:08.549Z,20.55
2023-08-11T03:35:09.535Z,20.55
2023-08-11T03:36:08.617Z,20.52
2023-08-11T03:37:08.627Z,20.49
2023-08-11T03:38:08.686Z,20.48
2023-08-11T03:39:08.640Z,20.49
2023-08-11T03:40:08.582Z,20.50
2023-08-11T03:41:08.904Z,20.52
2023-08-11T03:42:09.303Z,20.52
2023-08-11T03:43:08.609Z,20.53
2023-08-11T03:44:09.439Z,20.53
2023-08-11T03:45:08.518Z,20.55
2023-08-11T03:46:08.522Z,20.49
2023-08-11T03:47:08.482Z,20.48
2023-08-11T03:48:08.671Z,20.48
2023-08-11T03:49:08.444Z,20.49
2023-08-11T03:50:08.453Z,20.50
2023-08-11T03:51:08.481Z,20.49
2023-08-11T03:52:08.717Z,20.49
2023-08-11T03:53:08.530Z,20.49
2023-08-11T03:54:08.435Z,20.50
2023-08-11T03:55:09.414Z,20.52
2023-08-11T03:56:08.706Z,20.50
2023-08-11T03:57:08.399Z,20.50
2023-08-11T03:58:08.347Z,20.50
2023-08-11T03:59:08.306Z,20.52
2023-08-11T04:00:08.380Z,20.50
2023-08-11T04:01:08.353Z,20.50
2023-08-11T04:02:08.510Z,20.52
2023-08-11T04:03:08.437Z,20.52
2023-08-11T04:04:08.293Z,20.52
2023-08-11T04:05:08.303Z,20.53
2023-08-11T04:06:08.186Z,20.52
2023-08-11T04:07:08.314Z,20.52
2023-08-11T04:08:09.042Z,20.50
2023-08-11T04:09:08.519Z,20.50
2023-08-11T04:10:08.256Z,20.50
2023-08-11T04:11:08.244Z,20.50
2023-08-11T04:12:08.485Z,20.50
2023-08-11T04:13:08.195Z,20.50
2023-08-11T04:14:08.200Z,20.48
2023-08-11T04:15:08.262Z,20.49
2023-08-11T04:16:08.190Z,20.46
2023-08-11T04:17:09.092Z,20.42
2023-08-11T04:18:08.211Z,20.40
2023-08-11T04:19:08.259Z,20.39
2023-08-11T04:20:08.193Z,20.36
2023-08-11T04:21:09.119Z,20.34
2023-08-11T04:22:08.448Z,20.33
2023-08-11T04:23:08.212Z,20.34
2023-08-11T04:24:08.216Z,20.29
2023-08-11T04:25:08.125Z,20.26
2023-08-11T04:26:08.023Z,20.22
2023-08-11T04:27:08.079Z,20.22
2023-08-11T04:28:08.048Z,20.22
2023-08-11T04:29:08.153Z,20.22
2023-08-11T04:30:08.066Z,20.21
2023-08-11T04:31:08.076Z,20.21
2023-08-11T04:32:08.356Z,20.19
2023-08-11T04:33:08.068Z,20.17
2023-08-11T04:34:07.973Z,20.15
2023-08-11T04:35:07.980Z,20.15
2023-08-11T04:36:08.084Z,20.17
2023-08-11T04:37:08.002Z,20.19
2023-08-11T04:38:08.662Z,20.19
2023-08-11T04:39:08.039Z,20.19
2023-08-11T04:40:08.935Z,20.18
2023-08-11T04:41:07.919Z,20.21
2023-08-11T04:42:08.149Z,20.18
2023-08-11T04:43:07.936Z,20.18
2023-08-11T04:44:07.947Z,20.17
2023-08-11T04:45:07.955Z,20.15
2023-08-11T04:46:08.131Z,20.15
2023-08-11T04:47:07.865Z,20.14
2023-08-11T04:48:07.913Z,20.12
2023-08-11T04:49:07.865Z,20.12
2023-08-11T04:50:07.873Z,20.11
2023-08-11T04:51:07.900Z,20.11
2023-08-11T04:52:08.013Z,20.10
2023-08-11T04:53:07.797Z,20.08
2023-08-11T04:54:07.801Z,20.08
2023-08-11T04:55:07.839Z,20.08
2023-08-11T04:56:07.822Z,20.08
2023-08-11T04:57:07.729Z,20.08
2023-08-11T04:58:07.762Z,20.10
2023-08-11T04:59:07.694Z,20.10
2023-08-11T05:00:07.890Z,20.08
2023-08-11T05:01:07.710Z,20.07
2023-08-11T05:02:09.087Z,20.07
2023-08-11T05:03:07.766Z,20.04
2023-08-11T05:04:09.005Z,20.03
2023-08-11T05:05:07.678Z,20.03
2023-08-11T05:06:07.679Z,20.04
2023-08-11T05:07:08.553Z,20.03
2023-08-11T05:08:07.738Z,20.03
2023-08-11T05:09:07.697Z,20.03
2023-08-11T05:10:07.710Z,20.03
2023-08-11T05:11:07.615Z,20.03
2023-08-11T05:12:08.029Z,20.02
2023-08-11T05:13:07.637Z,20.02
2023-08-11T05:14:07.661Z,20.00
2023-08-11T05:15:07.694Z,19.99
2023-08-11T05:16:07.661Z,19.97
2023-08-11T05:17:08.119Z,19.97
2023-08-11T05:18:07.598Z,19.97
2023-08-11T05:19:07.573Z,19.99
2023-08-11T05:20:07.562Z,19.99
2023-08-11T05:21:07.574Z,19.99
2023-08-11T05:22:07.781Z,19.97
2023-08-11T05:23:07.487Z,19.96
2023-08-11T05:24:07.482Z,19.96
2023-08-11T05:25:07.502Z,19.96
2023-08-11T05:26:07.636Z,19.93
2023-08-11T05:27:07.667Z,19.89
2023-08-11T05:28:07.453Z,19.87
2023-08-11T05:29:09.693Z,19.84
2023-08-11T05:30:07.524Z,19.82
2023-08-11T05:31:07.531Z,19.81
2023-08-11T05:32:07.411Z,19.79
2023-08-11T05:33:07.406Z,19.78
2023-08-11T05:34:07.446Z,19.77
2023-08-11T05:35:07.375Z,19.75
2023-08-11T05:36:07.357Z,19.75
2023-08-11T05:37:07.621Z,19.72
2023-08-11T05:38:07.398Z,19.72
2023-08-11T05:39:07.308Z,19.72
2023-08-11T05:40:07.386Z,19.71
2023-08-11T05:41:07.257Z,19.70
2023-08-11T05:42:07.251Z,19.70
2023-08-11T05:43:07.249Z,19.67
2023-08-11T05:44:07.270Z,19.70
2023-08-11T05:45:07.204Z,19.70
2023-08-11T05:46:07.292Z,19.70
2023-08-11T05:47:07.752Z,19.70
2023-08-11T05:48:07.225Z,19.67
2023-08-11T05:49:07.247Z,19.70
2023-08-11T05:50:07.204Z,19.70
2023-08-11T05:51:07.156Z,19.71
2023-08-11T05:52:07.158Z,19.71
2023-08-11T05:53:07.125Z,19.70
2023-08-11T05:54:07.172Z,19.64
2023-08-11T05:55:07.169Z,19.64
2023-08-11T05:56:07.851Z,19.66
2023-08-11T05:57:07.295Z,19.66
2023-08-11T05:58:07.160Z,19.66
2023-08-11T05:59:08.237Z,19.67
2023-08-11T06:00:06.973Z,19.67
2023-08-11T06:01:07.197Z,19.67
2023-08-11T06:02:07.065Z,19.64
2023-08-11T06:03:06.997Z,19.66
2023-08-11T06:04:07.024Z,19.66
2023-08-11T06:05:07.096Z,19.66
2023-08-11T06:06:06.991Z,19.66
2023-08-11T06:07:07.479Z,19.66
2023-08-11T06:08:07.251Z,19.66
2023-08-11T06:09:07.902Z,19.64
2023-08-11T06:10:07.019Z,19.66
2023-08-11T06:11:06.912Z,19.66
2023-08-11T06:12:06.887Z,19.67
2023-08-11T06:13:06.848Z,19.66
2023-08-11T06:14:06.914Z,19.66
2023-08-11T06:15:06.864Z,19.64
2023-08-11T06:16:06.970Z,19.64
2023-08-11T06:17:08.972Z,19.66
2023-08-11T06:18:06.878Z,19.66
2023-08-11T06:19:06.884Z,19.66
2023-08-11T06:20:06.879Z,19.66
2023-08-11T06:21:06.796Z,19.67
2023-08-11T06:22:06.809Z,19.67
2023-08-11T06:23:06.813Z,19.70
2023-08-11T06:24:06.717Z,19.70
2023-08-11T06:25:06.721Z,19.66
2023-08-11T06:26:06.733Z,19.64
2023-08-11T06:27:07.379Z,19.62
2023-08-11T06:28:06.825Z,19.59
2023-08-11T06:29:06.699Z,19.55
2023-08-11T06:30:06.660Z,19.55
2023-08-11T06:31:06.681Z,19.53
2023-08-11T06:32:06.664Z,19.49
2023-08-11T06:33:06.722Z,19.52
2023-08-11T06:34:06.678Z,19.53
2023-08-11T06:35:06.668Z,19.55
2023-08-11T06:36:06.593Z,19.56
2023-08-11T06:37:06.864Z,19.56
2023-08-11T06:38:06.650Z,19.57
2023-08-11T06:39:06.704Z,19.57
2023-08-11T06:40:06.807Z,19.56
2023-08-11T06:41:06.568Z,19.56
2023-08-11T06:42:06.533Z,19.55
2023-08-11T06:43:06.620Z,19.55
2023-08-11T06:44:06.633Z,19.53
2023-08-11T06:45:06.641Z,19.53
2023-08-11T06:46:06.584Z,19.49
2023-08-11T06:47:07.461Z,19.47
2023-08-11T06:48:06.610Z,19.47
2023-08-11T06:49:06.571Z,19.48
2023-08-11T06:50:06.568Z,19.47
2023-08-11T06:51:06.592Z,19.47
2023-08-11T06:52:06.481Z,19.47
2023-08-11T06:53:06.485Z,19.47
2023-08-11T06:54:06.561Z,19.45
2023-08-11T06:55:06.585Z,19.45
2023-08-11T06:56:06.509Z,19.42
2023-08-11T06:57:06.649Z,19.42
2023-08-11T06:58:06.518Z,19.41
2023-08-11T06:59:06.432Z,19.41
2023-08-11T07:00:06.434Z,19.41
2023-08-11T07:01:06.461Z,19.42
2023-08-11T07:02:06.470Z,19.42
2023-08-11T07:03:07.029Z,19.45
2023-08-11T07:04:07.182Z,19.44
2023-08-11T07:05:06.376Z,19.44
2023-08-11T07:06:06.352Z,19.42
2023-08-11T07:07:06.675Z,19.44
2023-08-11T07:08:08.031Z,19.44
2023-08-11T07:09:06.292Z,19.42
2023-08-11T07:10:06.295Z,19.38
2023-08-11T07:11:06.698Z,19.37
2023-08-11T07:12:06.306Z,19.37
2023-08-11T07:13:06.239Z,19.34
2023-08-11T07:14:06.314Z,19.35
2023-08-11T07:15:06.240Z,19.34
2023-08-11T07:16:06.330Z,19.34
2023-08-11T07:17:06.294Z,19.35
2023-08-11T07:18:06.982Z,19.35
2023-08-11T07:19:06.163Z,19.35
2023-08-11T07:20:06.242Z,19.30
2023-08-11T07:21:06.259Z,19.30
2023-08-11T07:22:06.092Z,19.27
2023-08-11T07:23:06.159Z,19.27
2023-08-11T07:24:06.180Z,19.26
2023-08-11T07:25:06.106Z,19.23
2023-08-11T07:26:06.181Z,19.20
2023-08-11T07:27:07.208Z,19.17
2023-08-11T07:28:06.096Z,19.16
2023-08-11T07:29:06.024Z,19.12
2023-08-11T07:30:06.030Z,19.08
2023-08-11T07:31:06.035Z,19.05
2023-08-11T07:32:06.037Z,19.05
2023-08-11T07:33:06.078Z,19.00
2023-08-11T07:34:05.949Z,19.00
2023-08-11T07:35:06.029Z,19.00
2023-08-11T07:36:05.959Z,19.00
2023-08-11T07:37:06.006Z,18.98
2023-08-11T07:38:05.976Z,19.00
2023-08-11T07:40:05.882Z,19.04
2023-08-11T07:41:05.891Z,19.05
2023-08-11T07:42:05.975Z,19.09
2023-08-11T07:43:05.912Z,19.08
2023-08-11T07:44:05.812Z,19.07
2023-08-11T07:45:05.894Z,19.05
2023-08-11T07:46:05.833Z,19.05
2023-08-11T07:47:05.839Z,19.04
2023-08-11T07:48:06.557Z,19.04
2023-08-11T07:49:05.850Z,19.00
2023-08-11T07:50:05.950Z,18.98
2023-08-11T07:51:05.769Z,19.00
2023-08-11T07:52:05.776Z,18.98
2023-08-11T07:53:05.774Z,19.01
2023-08-11T07:54:06.018Z,19.00
2023-08-11T07:55:05.938Z,19.00
2023-08-11T07:56:05.690Z,18.98
2023-08-11T07:57:05.865Z,18.98
2023-08-11T07:58:05.774Z,19.00
2023-08-11T07:59:05.811Z,18.96
2023-08-11T08:00:06.002Z,18.94
2023-08-11T08:01:05.725Z,18.86
2023-08-11T08:02:05.682Z,18.82
2023-08-11T08:03:05.817Z,18.82
2023-08-11T08:04:05.799Z,18.82
2023-08-11T08:05:12.346Z,18.82
2023-08-11T08:06:05.651Z,18.83
2023-08-11T08:07:05.743Z,18.83
2023-08-11T08:08:05.566Z,18.82
2023-08-11T08:09:05.573Z,18.81
2023-08-11T08:10:08.437Z,18.81
2023-08-11T08:11:05.617Z,18.79
2023-08-11T08:12:05.568Z,18.78
2023-08-11T08:13:05.677Z,18.78
2023-08-11T08:14:05.604Z,18.78
2023-08-11T08:15:05.505Z,18.74
2023-08-11T08:16:05.720Z,18.74
2023-08-11T08:17:05.504Z,18.73
2023-08-11T08:18:05.612Z,18.74
2023-08-11T08:19:05.515Z,18.73
2023-08-11T08:20:05.442Z,18.71
2023-08-11T08:21:05.452Z,18.71
2023-08-11T08:22:05.455Z,18.71
2023-08-11T08:23:05.466Z,18.74
2023-08-11T08:24:05.494Z,18.76
2023-08-11T08:25:05.477Z,18.76
2023-08-11T08:26:05.387Z,18.79
2023-08-11T08:27:05.387Z,18.78
2023-08-11T08:28:06.955Z,18.78
2023-08-11T08:29:05.410Z,18.78
2023-08-11T08:30:05.439Z,18.79
2023-08-11T08:31:05.317Z,18.81
2023-08-11T08:32:05.431Z,18.81
2023-08-11T08:33:05.394Z,18.82
2023-08-11T08:34:05.460Z,18.83
2023-08-11T08:35:07.027Z,18.85
2023-08-11T08:36:05.304Z,18.85
2023-08-11T08:37:05.237Z,18.85
2023-08-11T08:38:05.247Z,18.83
2023-08-11T08:39:08.239Z,18.83
2023-08-11T08:40:05.264Z,18.83
2023-08-11T08:41:05.266Z,18.85
2023-08-11T08:42:05.174Z,18.85
2023-08-11T08:43:05.194Z,18.85
2023-08-11T08:44:05.185Z,18.83
2023-08-11T08:45:05.216Z,18.85
2023-08-11T08:46:05.218Z,18.86
2023-08-11T08:47:05.212Z,18.89
2023-08-11T08:48:05.196Z,18.89
2023-08-11T08:49:05.178Z,18.91
2023-08-11T08:50:05.091Z,18.96
2023-08-11T08:51:05.199Z,18.98
2023-08-11T08:52:05.930Z,18.98
2023-08-11T08:53:05.208Z,19.00
2023-08-11T08:54:05.120Z,19.01
2023-08-11T08:55:05.129Z,19.05
2023-08-11T08:56:05.019Z,19.05
2023-08-11T08:57:05.124Z,19.07
2023-08-11T08:58:05.070Z,19.05
2023-08-11T08:59:05.037Z,19.07
2023-08-11T09:00:04.991Z,19.07
2023-08-11T09:01:05.048Z,19.04
2023-08-11T09:02:06.424Z,19.04
2023-08-11T09:03:05.609Z,19.01
2023-08-11T09:04:05.205Z,19.01
2023-08-11T09:05:05.075Z,19.04
2023-08-11T09:06:05.000Z,19.01
2023-08-11T09:07:04.993Z,19.00
2023-08-11T09:08:04.990Z,19.04
2023-08-11T09:09:04.999Z,19.05
2023-08-11T09:10:05.012Z,19.05
2023-08-11T09:11:04.923Z,19.07
2023-08-11T09:12:05.158Z,19.08
2023-08-11T09:13:04.935Z,19.07
2023-08-11T09:14:04.983Z,19.08
2023-08-11T09:15:05.049Z,19.08
2023-08-11T09:16:05.165Z,19.09
2023-08-11T09:17:04.993Z,19.09
2023-08-11T09:18:05.053Z,19.11
2023-08-11T09:19:05.066Z,19.15
2023-08-11T09:20:04.978Z,19.17
2023-08-11T09:21:04.976Z,19.17
2023-08-11T09:22:04.803Z,19.17
2023-08-11T09:23:04.893Z,19.19
2023-08-11T09:24:04.898Z,19.19
2023-08-11T09:25:05.536Z,19.20
2023-08-11T09:26:04.806Z,19.20
2023-08-11T09:27:06.498Z,19.22
2023-08-11T09:28:04.822Z,19.23
2023-08-11T09:29:04.824Z,19.24
2023-08-11T09:30:04.836Z,19.27
2023-08-11T09:31:04.838Z,19.29
2023-08-11T09:32:06.182Z,19.34
2023-08-11T09:33:05.185Z,19.35
2023-08-11T09:34:04.690Z,19.37
2023-08-11T09:35:04.764Z,19.41
2023-08-11T09:36:04.662Z,19.42
2023-08-11T09:37:04.678Z,19.45
2023-08-11T09:38:04.677Z,19.48
2023-08-11T09:39:04.639Z,19.52
2023-08-11T09:40:04.629Z,19.52
2023-08-11T09:41:04.621Z,19.53
2023-08-11T09:42:04.554Z,19.55
2023-08-11T09:43:04.539Z,19.55
2023-08-11T09:44:04.604Z,19.55
2023-08-11T09:45:05.050Z,19.53
2023-08-11T09:46:04.677Z,19.52
2023-08-11T09:47:15.356Z,19.55
2023-08-11T09:48:04.581Z,19.55
2023-08-11T09:49:04.547Z,19.55
2023-08-11T09:50:04.484Z,19.56
2023-08-11T09:51:04.486Z,19.55
2023-08-11T09:52:04.517Z,19.48
2023-08-11T09:53:04.402Z,19.42
2023-08-11T09:54:04.579Z,19.41
2023-08-11T09:55:04.489Z,19.41
2023-08-11T09:56:05.205Z,19.41
2023-08-11T09:57:04.430Z,19.39
2023-08-11T09:58:04.503Z,19.38
2023-08-11T09:59:04.406Z,19.37
2023-08-11T10:00:04.538Z,19.35
2023-08-11T10:01:14.947Z,19.32
2023-08-11T10:02:04.489Z,19.32
2023-08-11T10:03:04.562Z,19.30
2023-08-11T10:04:04.500Z,19.32
2023-08-11T10:05:04.362Z,19.29
2023-08-11T10:06:04.346Z,19.29
2023-08-11T10:07:04.369Z,19.30
2023-08-11T10:08:04.369Z,19.32
2023-08-11T10:09:04.382Z,19.32
2023-08-11T10:10:04.309Z,19.34
2023-08-11T10:11:04.292Z,19.35
2023-08-11T10:12:04.224Z,19.37
2023-08-11T10:13:04.912Z,19.38
2023-08-11T10:14:05.081Z,19.39
2023-08-11T10:15:04.222Z,19.41
2023-08-11T10:16:04.280Z,19.44
2023-08-11T10:17:04.165Z,19.48
2023-08-11T10:18:04.275Z,19.49
2023-08-11T10:19:04.158Z,19.53
2023-08-11T10:20:04.239Z,19.56
2023-08-11T10:21:04.199Z,19.60
2023-08-11T10:22:04.252Z,19.63
2023-08-11T10:23:04.084Z,19.70
2023-08-11T10:24:04.152Z,19.72
2023-08-11T10:25:04.203Z,19.77
2023-08-11T10:26:04.088Z,19.79
2023-08-11T10:27:05.773Z,19.82
2023-08-11T10:28:04.105Z,19.87
2023-08-11T10:29:04.014Z,19.90
2023-08-11T10:30:04.021Z,19.94
2023-08-11T10:31:04.051Z,19.97
2023-08-11T10:32:04.026Z,20.02
2023-08-11T10:33:06.051Z,20.03
2023-08-11T10:34:04.017Z,20.08
2023-08-11T10:35:03.942Z,20.11
2023-08-11T10:36:03.957Z,20.14
2023-08-11T10:37:04.042Z,20.18
2023-08-11T10:38:03.978Z,20.22
2023-08-11T10:39:03.968Z,20.26
2023-08-11T10:40:03.890Z,20.29
2023-08-11T10:41:03.929Z,20.33
2023-08-11T10:42:04.178Z,20.34
2023-08-11T10:43:03.954Z,20.39
2023-08-11T10:44:03.946Z,20.40
2023-08-11T10:45:03.993Z,20.46
2023-08-11T10:46:03.930Z,20.49
2023-08-11T10:47:03.825Z,20.50
2023-08-11T10:48:03.841Z,20.55
2023-08-11T10:49:03.853Z,20.58
2023-08-11T10:50:03.817Z,20.63
2023-08-11T10:51:04.697Z,20.66
2023-08-11T10:52:03.790Z,20.70
2023-08-11T10:53:04.105Z,20.71
2023-08-11T10:54:04.266Z,20.75
2023-08-11T10:55:03.792Z,20.78
2023-08-11T10:56:04.204Z,20.83
2023-08-11T10:57:03.827Z,20.85
2023-08-11T10:58:05.679Z,20.86
2023-08-11T10:59:03.710Z,20.89
2023-08-11T11:00:03.725Z,20.93
2023-08-11T11:01:03.752Z,20.96
2023-08-11T11:02:03.759Z,21.00
2023-08-11T11:03:03.693Z,21.03
2023-08-11T11:04:03.651Z,21.07
2023-08-11T11:05:03.773Z,21.10
2023-08-11T11:06:03.650Z,21.14
2023-08-11T11:07:03.729Z,21.20
2023-08-11T11:08:03.633Z,21.25
2023-08-11T11:09:03.625Z,21.30
2023-08-11T11:10:03.605Z,21.38
2023-08-11T11:11:03.546Z,21.41
2023-08-11T11:12:03.624Z,21.45
2023-08-11T11:13:03.569Z,21.48
2023-08-11T11:14:03.520Z,21.50
2023-08-11T11:15:03.513Z,21.53
2023-08-11T11:16:03.543Z,21.56
2023-08-11T11:17:03.582Z,21.59
2023-08-11T11:18:03.560Z,21.60
2023-08-11T11:19:03.532Z,21.63
2023-08-11T11:20:03.801Z,21.66
2023-08-11T11:21:03.459Z,21.69
2023-08-11T11:22:03.591Z,21.70
2023-08-11T11:23:03.452Z,21.75
2023-08-11T11:24:03.461Z,21.78
2023-08-11T11:25:03.381Z,21.81
2023-08-11T11:26:03.647Z,21.84
2023-08-11T11:27:03.400Z,21.88
2023-08-11T11:28:03.429Z,21.89
2023-08-11T11:29:03.442Z,21.92
2023-08-11T11:30:03.497Z,21.96
2023-08-11T11:31:03.340Z,21.99
2023-08-11T11:32:03.408Z,22.06
2023-08-11T11:33:05.065Z,22.08
2023-08-11T11:34:03.363Z,22.12
2023-08-11T11:35:03.425Z,22.18
2023-08-11T11:36:03.468Z,22.21
2023-08-11T11:37:03.372Z,22.26
2023-08-11T11:38:03.281Z,22.25
2023-08-11T11:39:05.424Z,22.30
2023-08-11T11:40:03.282Z,22.33
2023-08-11T11:41:03.509Z,22.33
2023-08-11T11:42:03.300Z,22.34
2023-08-11T11:43:04.004Z,22.37
2023-08-11T11:44:03.294Z,22.40
2023-08-11T11:45:04.497Z,22.44
2023-08-11T11:46:03.337Z,22.47
2023-08-11T11:47:03.598Z,22.53
2023-08-11T11:48:03.255Z,22.58
2023-08-11T11:49:07.119Z,22.67
2023-08-11T11:50:03.126Z,22.73
2023-08-11T11:51:04.743Z,22.77
2023-08-11T11:52:03.238Z,22.86
2023-08-11T11:53:03.153Z,22.93
2023-08-11T11:54:03.160Z,23.01
2023-08-11T11:55:03.064Z,23.06
2023-08-11T11:56:03.257Z,23.10
2023-08-11T11:57:05.543Z,23.13
2023-08-11T11:58:03.105Z,23.16
2023-08-11T11:59:03.094Z,23.21
2023-08-11T12:00:03.145Z,23.25
2023-08-11T12:01:03.013Z,23.28
2023-08-11T12:02:03.210Z,23.32
2023-08-11T12:03:03.152Z,23.33
2023-08-11T12:04:03.120Z,23.37
2023-08-11T12:05:03.060Z,23.40
2023-08-11T12:06:03.053Z,23.45
2023-08-11T12:07:03.075Z,23.52
2023-08-11T12:08:02.941Z,23.55
2023-08-11T12:09:02.933Z,23.58
2023-08-11T12:10:03.054Z,23.62
2023-08-11T12:11:02.968Z,23.67
2023-08-11T12:12:03.063Z,23.71
2023-08-11T12:13:02.908Z,23.76
2023-08-11T12:14:02.933Z,23.84
2023-08-11T12:15:02.918Z,23.89
2023-08-11T12:16:03.006Z,23.92
2023-08-11T12:17:02.884Z,24.01
2023-08-11T12:18:02.841Z,24.09
2023-08-11T12:19:02.918Z,24.14
2023-08-11T12:20:02.833Z,24.19
2023-08-11T12:21:02.839Z,24.21
2023-08-11T12:22:02.871Z,24.29
2023-08-11T12:23:02.825Z,24.37
2023-08-11T12:24:02.869Z,24.46
2023-08-11T12:25:02.849Z,24.53
2023-08-11T12:26:02.846Z,24.58
2023-08-11T12:27:02.848Z,24.59
2023-08-11T12:28:02.873Z,24.62
2023-08-11T12:29:02.762Z,24.65
2023-08-11T12:30:02.909Z,24.63
2023-08-11T12:31:02.769Z,24.69
2023-08-11T12:32:02.793Z,24.75
2023-08-11T12:33:02.803Z,24.77
2023-08-11T12:34:02.841Z,24.79
2023-08-11T12:35:02.840Z,24.81
2023-08-11T12:36:02.696Z,24.84
2023-08-11T12:37:06.345Z,24.85
2023-08-11T12:38:03.275Z,24.92
2023-08-11T12:39:03.047Z,24.94
2023-08-11T12:40:03.747Z,24.96
2023-08-11T12:41:02.668Z,25.00
2023-08-11T12:42:02.651Z,25.00
2023-08-11T12:43:02.678Z,24.96
2023-08-11T12:44:02.897Z,24.97
2023-08-11T12:45:02.684Z,24.99
2023-08-11T12:46:08.235Z,24.99
2023-08-11T12:47:06.488Z,24.96
2023-08-11T12:48:02.624Z,24.99
2023-08-11T12:49:02.504Z,25.00
2023-08-11T12:50:02.534Z,25.07
2023-08-11T12:51:02.522Z,25.12
2023-08-11T12:52:02.531Z,25.15
2023-08-11T12:53:02.492Z,25.25